sensor_id;sensor_type;location;lat;lon;timestamp;P1;durP1;ratioP1;P2;durP2;ratioP2
84666;SDS011;74896;42.518;23.712;2024-03-02T00:01:50;47.63;;;17.45;;
84666;SDS011;74896;42.518;23.712;2024-03-02T00:04:16;56.55;;;18.20;;
84666;SDS011;74896;42.518;23.712;2024-03-02T00:06:42;51.28;;;19.92;;
84666;SDS011;74896;42.518;23.712;2024-03-02T00:09:08;61.38;;;18.98;;
84666;SDS011;74896;42.518;23.712;2024-03-02T00:11:36;54.35;;;20.02;;
84666;SDS011;74896;42.518;23.712;2024-03-02T00:14:02;55.28;;;18.70;;
84666;SDS011;74896;42.518;23.712;2024-03-02T00:16:30;60.75;;;19.90;;
84666;SDS011;74896;42.518;23.712;2024-03-02T00:19:00;61.67;;;20.65;;
84666;SDS011;74896;42.518;23.712;2024-03-02T00:21:27;49.95;;;18.80;;
84666;SDS011;74896;42.518;23.712;2024-03-02T00:23:54;83.68;;;20.10;;
84666;SDS011;74896;42.518;23.712;2024-03-02T00:26:20;55.10;;;19.20;;
84666;SDS011;74896;42.518;23.712;2024-03-02T00:28:46;78.30;;;19.85;;
84666;SDS011;74896;42.518;23.712;2024-03-02T00:31:12;78.43;;;20.05;;
84666;SDS011;74896;42.518;23.712;2024-03-02T00:36:05;66.55;;;18.95;;
84666;SDS011;74896;42.518;23.712;2024-03-02T00:38:31;116.05;;;19.45;;
84666;SDS011;74896;42.518;23.712;2024-03-02T00:41:03;71.85;;;19.42;;
84666;SDS011;74896;42.518;23.712;2024-03-02T00:46:06;90.95;;;17.35;;
84666;SDS011;74896;42.518;23.712;2024-03-02T00:48:32;117.78;;;19.55;;
84666;SDS011;74896;42.518;23.712;2024-03-02T00:51:00;148.05;;;22.60;;
84666;SDS011;74896;42.518;23.712;2024-03-02T00:53:28;133.50;;;18.52;;
84666;SDS011;74896;42.518;23.712;2024-03-02T00:55:55;179.80;;;22.50;;
84666;SDS011;74896;42.518;23.712;2024-03-02T00:58:20;86.10;;;18.95;;
84666;SDS011;74896;42.518;23.712;2024-03-02T01:00:46;196.48;;;21.35;;
84666;SDS011;74896;42.518;23.712;2024-03-02T01:03:12;111.22;;;18.63;;
84666;SDS011;74896;42.518;23.712;2024-03-02T01:05:41;142.98;;;20.73;;
84666;SDS011;74896;42.518;23.712;2024-03-02T01:08:07;242.75;;;21.70;;
84666;SDS011;74896;42.518;23.712;2024-03-02T01:10:32;77.80;;;18.10;;
84666;SDS011;74896;42.518;23.712;2024-03-02T01:12:58;78.57;;;18.55;;
84666;SDS011;74896;42.518;23.712;2024-03-02T01:15:23;68.82;;;18.08;;
84666;SDS011;74896;42.518;23.712;2024-03-02T01:17:48;140.30;;;22.02;;
84666;SDS011;74896;42.518;23.712;2024-03-02T01:20:14;188.10;;;23.55;;
84666;SDS011;74896;42.518;23.712;2024-03-02T01:22:39;148.32;;;18.90;;
84666;SDS011;74896;42.518;23.712;2024-03-02T01:25:05;80.50;;;17.20;;
84666;SDS011;74896;42.518;23.712;2024-03-02T01:27:31;123.90;;;20.02;;
84666;SDS011;74896;42.518;23.712;2024-03-02T01:29:56;83.53;;;18.42;;
84666;SDS011;74896;42.518;23.712;2024-03-02T01:32:21;64.60;;;18.42;;
84666;SDS011;74896;42.518;23.712;2024-03-02T01:34:47;166.52;;;20.30;;
84666;SDS011;74896;42.518;23.712;2024-03-02T01:37:12;126.85;;;20.17;;
84666;SDS011;74896;42.518;23.712;2024-03-02T01:39:38;98.38;;;19.30;;
84666;SDS011;74896;42.518;23.712;2024-03-02T01:42:04;108.20;;;18.90;;
84666;SDS011;74896;42.518;23.712;2024-03-02T01:44:30;231.60;;;25.02;;
84666;SDS011;74896;42.518;23.712;2024-03-02T01:46:55;285.13;;;24.30;;
84666;SDS011;74896;42.518;23.712;2024-03-02T01:49:20;294.60;;;24.25;;
84666;SDS011;74896;42.518;23.712;2024-03-02T01:51:46;259.35;;;22.55;;
84666;SDS011;74896;42.518;23.712;2024-03-02T01:54:11;301.63;;;24.02;;
84666;SDS011;74896;42.518;23.712;2024-03-02T01:56:37;355.00;;;25.42;;
84666;SDS011;74896;42.518;23.712;2024-03-02T01:59:02;208.82;;;21.40;;
84666;SDS011;74896;42.518;23.712;2024-03-02T02:01:29;283.35;;;25.38;;
84666;SDS011;74896;42.518;23.712;2024-03-02T02:03:56;177.68;;;19.85;;
84666;SDS011;74896;42.518;23.712;2024-03-02T02:06:21;272.75;;;23.45;;
84666;SDS011;74896;42.518;23.712;2024-03-02T02:08:47;229.52;;;21.30;;
84666;SDS011;74896;42.518;23.712;2024-03-02T02:11:15;219.70;;;18.90;;
84666;SDS011;74896;42.518;23.712;2024-03-02T02:13:41;201.18;;;21.15;;
84666;SDS011;74896;42.518;23.712;2024-03-02T02:16:07;131.63;;;18.33;;
84666;SDS011;74896;42.518;23.712;2024-03-02T02:18:33;115.25;;;19.55;;
84666;SDS011;74896;42.518;23.712;2024-03-02T02:20:59;166.30;;;19.08;;
84666;SDS011;74896;42.518;23.712;2024-03-02T02:23:24;170.30;;;19.90;;
84666;SDS011;74896;42.518;23.712;2024-03-02T02:25:50;160.63;;;20.08;;
84666;SDS011;74896;42.518;23.712;2024-03-02T02:28:15;162.73;;;20.88;;
84666;SDS011;74896;42.518;23.712;2024-03-02T02:30:41;173.23;;;20.05;;
84666;SDS011;74896;42.518;23.712;2024-03-02T02:33:06;265.48;;;23.73;;
84666;SDS011;74896;42.518;23.712;2024-03-02T02:35:32;293.90;;;24.65;;
84666;SDS011;74896;42.518;23.712;2024-03-02T02:37:57;312.95;;;24.10;;
84666;SDS011;74896;42.518;23.712;2024-03-02T02:40:26;315.65;;;24.35;;
84666;SDS011;74896;42.518;23.712;2024-03-02T02:42:52;355.20;;;25.05;;
84666;SDS011;74896;42.518;23.712;2024-03-02T02:45:17;472.48;;;31.70;;
84666;SDS011;74896;42.518;23.712;2024-03-02T02:47:43;250.70;;;21.60;;
84666;SDS011;74896;42.518;23.712;2024-03-02T02:50:09;386.02;;;26.05;;
84666;SDS011;74896;42.518;23.712;2024-03-02T02:52:37;325.40;;;22.15;;
84666;SDS011;74896;42.518;23.712;2024-03-02T02:55:05;342.13;;;23.48;;
84666;SDS011;74896;42.518;23.712;2024-03-02T02:57:32;344.83;;;23.80;;
84666;SDS011;74896;42.518;23.712;2024-03-02T03:00:06;415.45;;;26.33;;
84666;SDS011;74896;42.518;23.712;2024-03-02T03:02:39;367.52;;;24.17;;
84666;SDS011;74896;42.518;23.712;2024-03-02T03:05:06;395.40;;;25.88;;
84666;SDS011;74896;42.518;23.712;2024-03-02T03:07:33;421.42;;;25.17;;
84666;SDS011;74896;42.518;23.712;2024-03-02T03:09:59;432.23;;;26.95;;
84666;SDS011;74896;42.518;23.712;2024-03-02T03:12:25;304.95;;;19.60;;
84666;SDS011;74896;42.518;23.712;2024-03-02T03:14:51;406.88;;;24.27;;
84666;SDS011;74896;42.518;23.712;2024-03-02T03:17:16;382.88;;;25.05;;
84666;SDS011;74896;42.518;23.712;2024-03-02T03:19:42;350.38;;;23.05;;
84666;SDS011;74896;42.518;23.712;2024-03-02T03:22:07;340.63;;;21.70;;
84666;SDS011;74896;42.518;23.712;2024-03-02T03:24:33;427.15;;;25.02;;
84666;SDS011;74896;42.518;23.712;2024-03-02T03:26:58;340.85;;;22.02;;
84666;SDS011;74896;42.518;23.712;2024-03-02T03:29:24;323.05;;;21.30;;
84666;SDS011;74896;42.518;23.712;2024-03-02T03:31:49;334.55;;;23.10;;
84666;SDS011;74896;42.518;23.712;2024-03-02T03:34:15;431.52;;;24.92;;
84666;SDS011;74896;42.518;23.712;2024-03-02T03:36:41;268.70;;;18.65;;
84666;SDS011;74896;42.518;23.712;2024-03-02T03:39:07;290.38;;;22.38;;
84666;SDS011;74896;42.518;23.712;2024-03-02T03:41:32;370.83;;;22.17;;
84666;SDS011;74896;42.518;23.712;2024-03-02T03:43:58;285.67;;;18.98;;
84666;SDS011;74896;42.518;23.712;2024-03-02T03:46:23;390.92;;;22.42;;
84666;SDS011;74896;42.518;23.712;2024-03-02T03:48:49;291.05;;;17.83;;
84666;SDS011;74896;42.518;23.712;2024-03-02T03:51:14;348.45;;;21.92;;
84666;SDS011;74896;42.518;23.712;2024-03-02T03:53:39;403.92;;;23.48;;
84666;SDS011;74896;42.518;23.712;2024-03-02T03:56:05;366.67;;;20.80;;
84666;SDS011;74896;42.518;23.712;2024-03-02T03:58:30;361.30;;;21.95;;
84666;SDS011;74896;42.518;23.712;2024-03-02T04:00:56;289.05;;;20.48;;
84666;SDS011;74896;42.518;23.712;2024-03-02T04:03:21;252.75;;;17.50;;
84666;SDS011;74896;42.518;23.712;2024-03-02T04:05:47;271.50;;;20.60;;
84666;SDS011;74896;42.518;23.712;2024-03-02T04:08:12;304.05;;;20.63;;
84666;SDS011;74896;42.518;23.712;2024-03-02T04:10:37;338.58;;;22.17;;
84666;SDS011;74896;42.518;23.712;2024-03-02T04:13:03;333.23;;;20.65;;
84666;SDS011;74896;42.518;23.712;2024-03-02T04:15:28;355.85;;;23.48;;
84666;SDS011;74896;42.518;23.712;2024-03-02T04:17:54;376.13;;;24.25;;
84666;SDS011;74896;42.518;23.712;2024-03-02T04:20:20;286.83;;;21.58;;
84666;SDS011;74896;42.518;23.712;2024-03-02T04:22:45;301.27;;;21.80;;
84666;SDS011;74896;42.518;23.712;2024-03-02T04:25:11;238.13;;;20.27;;
84666;SDS011;74896;42.518;23.712;2024-03-02T04:27:36;266.85;;;21.27;;
84666;SDS011;74896;42.518;23.712;2024-03-02T04:30:02;162.90;;;17.98;;
84666;SDS011;74896;42.518;23.712;2024-03-02T04:32:28;313.35;;;22.77;;
84666;SDS011;74896;42.518;23.712;2024-03-02T04:34:54;323.38;;;23.13;;
84666;SDS011;74896;42.518;23.712;2024-03-02T04:37:19;247.32;;;20.60;;
84666;SDS011;74896;42.518;23.712;2024-03-02T04:39:45;203.68;;;18.17;;
84666;SDS011;74896;42.518;23.712;2024-03-02T04:42:10;281.00;;;21.00;;
84666;SDS011;74896;42.518;23.712;2024-03-02T04:44:36;318.58;;;21.98;;
84666;SDS011;74896;42.518;23.712;2024-03-02T04:47:03;259.70;;;20.83;;
84666;SDS011;74896;42.518;23.712;2024-03-02T04:49:29;216.95;;;18.73;;
84666;SDS011;74896;42.518;23.712;2024-03-02T04:51:55;215.68;;;19.33;;
84666;SDS011;74896;42.518;23.712;2024-03-02T04:54:20;221.45;;;19.88;;
84666;SDS011;74896;42.518;23.712;2024-03-02T04:56:46;269.65;;;21.10;;
84666;SDS011;74896;42.518;23.712;2024-03-02T04:59:15;222.98;;;18.98;;
84666;SDS011;74896;42.518;23.712;2024-03-02T05:01:41;272.35;;;20.50;;
84666;SDS011;74896;42.518;23.712;2024-03-02T05:04:07;319.20;;;23.50;;
84666;SDS011;74896;42.518;23.712;2024-03-02T05:06:33;272.73;;;19.42;;
84666;SDS011;74896;42.518;23.712;2024-03-02T05:08:58;242.10;;;21.75;;
84666;SDS011;74896;42.518;23.712;2024-03-02T05:11:24;234.02;;;18.60;;
84666;SDS011;74896;42.518;23.712;2024-03-02T05:14:04;212.70;;;17.70;;
84666;SDS011;74896;42.518;23.712;2024-03-02T05:16:37;194.00;;;17.48;;
84666;SDS011;74896;42.518;23.712;2024-03-02T05:19:06;256.45;;;20.20;;
84666;SDS011;74896;42.518;23.712;2024-03-02T05:21:32;233.27;;;17.40;;
84666;SDS011;74896;42.518;23.712;2024-03-02T05:23:58;250.20;;;19.52;;
84666;SDS011;74896;42.518;23.712;2024-03-02T05:26:24;279.58;;;19.70;;
84666;SDS011;74896;42.518;23.712;2024-03-02T05:28:49;284.67;;;19.20;;
84666;SDS011;74896;42.518;23.712;2024-03-02T05:31:15;257.63;;;19.70;;
84666;SDS011;74896;42.518;23.712;2024-03-02T05:33:41;298.13;;;19.95;;
84666;SDS011;74896;42.518;23.712;2024-03-02T05:36:07;305.95;;;19.83;;
84666;SDS011;74896;42.518;23.712;2024-03-02T05:38:34;258.58;;;19.63;;
84666;SDS011;74896;42.518;23.712;2024-03-02T05:41:00;248.60;;;18.17;;
84666;SDS011;74896;42.518;23.712;2024-03-02T05:43:25;315.30;;;20.27;;
84666;SDS011;74896;42.518;23.712;2024-03-02T05:45:51;272.77;;;20.45;;
84666;SDS011;74896;42.518;23.712;2024-03-02T05:48:16;326.17;;;21.05;;
84666;SDS011;74896;42.518;23.712;2024-03-02T05:50:41;312.27;;;19.20;;
84666;SDS011;74896;42.518;23.712;2024-03-02T05:53:07;270.63;;;18.10;;
84666;SDS011;74896;42.518;23.712;2024-03-02T05:55:32;239.25;;;16.63;;
84666;SDS011;74896;42.518;23.712;2024-03-02T05:57:58;211.45;;;15.73;;
84666;SDS011;74896;42.518;23.712;2024-03-02T06:00:23;199.75;;;16.73;;
84666;SDS011;74896;42.518;23.712;2024-03-02T06:02:48;195.98;;;16.77;;
84666;SDS011;74896;42.518;23.712;2024-03-02T06:05:14;173.07;;;17.05;;
84666;SDS011;74896;42.518;23.712;2024-03-02T06:07:40;147.45;;;14.77;;
84666;SDS011;74896;42.518;23.712;2024-03-02T06:10:06;113.18;;;15.02;;
84666;SDS011;74896;42.518;23.712;2024-03-02T06:12:33;173.85;;;14.55;;
84666;SDS011;74896;42.518;23.712;2024-03-02T06:14:59;103.45;;;15.07;;
84666;SDS011;74896;42.518;23.712;2024-03-02T06:17:24;115.78;;;14.80;;
84666;SDS011;74896;42.518;23.712;2024-03-02T06:19:50;257.17;;;17.52;;
84666;SDS011;74896;42.518;23.712;2024-03-02T06:22:15;172.95;;;16.20;;
84666;SDS011;74896;42.518;23.712;2024-03-02T06:24:40;209.18;;;17.80;;
84666;SDS011;74896;42.518;23.712;2024-03-02T06:27:06;267.15;;;19.95;;
84666;SDS011;74896;42.518;23.712;2024-03-02T06:29:34;271.67;;;21.80;;
84666;SDS011;74896;42.518;23.712;2024-03-02T06:32:00;279.92;;;21.15;;
84666;SDS011;74896;42.518;23.712;2024-03-02T06:34:25;270.95;;;20.73;;
84666;SDS011;74896;42.518;23.712;2024-03-02T06:36:50;222.18;;;19.55;;
84666;SDS011;74896;42.518;23.712;2024-03-02T06:39:16;265.85;;;19.70;;
84666;SDS011;74896;42.518;23.712;2024-03-02T06:41:41;229.88;;;19.15;;
84666;SDS011;74896;42.518;23.712;2024-03-02T06:44:12;230.77;;;16.67;;
84666;SDS011;74896;42.518;23.712;2024-03-02T06:46:37;219.50;;;19.00;;
84666;SDS011;74896;42.518;23.712;2024-03-02T06:49:03;209.32;;;18.40;;
84666;SDS011;74896;42.518;23.712;2024-03-02T06:51:29;174.35;;;15.88;;
84666;SDS011;74896;42.518;23.712;2024-03-02T06:53:54;157.45;;;16.98;;
84666;SDS011;74896;42.518;23.712;2024-03-02T06:56:20;106.60;;;14.10;;
84666;SDS011;74896;42.518;23.712;2024-03-02T06:58:46;207.52;;;16.70;;
84666;SDS011;74896;42.518;23.712;2024-03-02T07:01:11;134.63;;;13.65;;
84666;SDS011;74896;42.518;23.712;2024-03-02T07:03:37;130.25;;;13.73;;
84666;SDS011;74896;42.518;23.712;2024-03-02T07:06:04;116.25;;;11.73;;
84666;SDS011;74896;42.518;23.712;2024-03-02T07:08:30;119.07;;;13.57;;
84666;SDS011;74896;42.518;23.712;2024-03-02T07:10:55;94.43;;;13.40;;
84666;SDS011;74896;42.518;23.712;2024-03-02T07:13:21;186.43;;;16.40;;
84666;SDS011;74896;42.518;23.712;2024-03-02T07:15:47;100.30;;;14.02;;
84666;SDS011;74896;42.518;23.712;2024-03-02T07:18:44;139.63;;;14.10;;
84666;SDS011;74896;42.518;23.712;2024-03-02T07:21:16;128.50;;;14.20;;
84666;SDS011;74896;42.518;23.712;2024-03-02T07:23:41;159.35;;;13.80;;
84666;SDS011;74896;42.518;23.712;2024-03-02T07:26:06;165.90;;;15.45;;
84666;SDS011;74896;42.518;23.712;2024-03-02T07:28:32;156.82;;;14.60;;
84666;SDS011;74896;42.518;23.712;2024-03-02T07:31:01;166.23;;;15.65;;
84666;SDS011;74896;42.518;23.712;2024-03-02T07:33:29;90.85;;;12.52;;
84666;SDS011;74896;42.518;23.712;2024-03-02T07:35:55;82.55;;;11.63;;
84666;SDS011;74896;42.518;23.712;2024-03-02T07:38:21;100.00;;;14.25;;
84666;SDS011;74896;42.518;23.712;2024-03-02T07:40:50;107.50;;;15.50;;
84666;SDS011;74896;42.518;23.712;2024-03-02T07:43:18;84.28;;;15.55;;
84666;SDS011;74896;42.518;23.712;2024-03-02T07:45:44;57.35;;;10.52;;
84666;SDS011;74896;42.518;23.712;2024-03-02T07:48:10;82.82;;;10.63;;
84666;SDS011;74896;42.518;23.712;2024-03-02T07:50:36;108.88;;;11.82;;
84666;SDS011;74896;42.518;23.712;2024-03-02T07:53:02;103.05;;;11.02;;
84666;SDS011;74896;42.518;23.712;2024-03-02T07:55:28;64.00;;;11.65;;
84666;SDS011;74896;42.518;23.712;2024-03-02T07:57:54;110.65;;;12.27;;
84666;SDS011;74896;42.518;23.712;2024-03-02T08:00:20;56.85;;;10.45;;
84666;SDS011;74896;42.518;23.712;2024-03-02T08:02:45;47.70;;;12.20;;
84666;SDS011;74896;42.518;23.712;2024-03-02T08:05:11;51.75;;;11.20;;
84666;SDS011;74896;42.518;23.712;2024-03-02T08:07:36;37.88;;;10.73;;
84666;SDS011;74896;42.518;23.712;2024-03-02T08:10:02;49.75;;;10.95;;
84666;SDS011;74896;42.518;23.712;2024-03-02T08:12:28;36.47;;;11.10;;
84666;SDS011;74896;42.518;23.712;2024-03-02T08:14:53;35.15;;;12.82;;
84666;SDS011;74896;42.518;23.712;2024-03-02T08:17:19;24.42;;;9.02;;
84666;SDS011;74896;42.518;23.712;2024-03-02T08:19:44;30.73;;;11.05;;
84666;SDS011;74896;42.518;23.712;2024-03-02T08:22:09;28.52;;;10.32;;
84666;SDS011;74896;42.518;23.712;2024-03-02T08:24:35;23.08;;;9.25;;
84666;SDS011;74896;42.518;23.712;2024-03-02T08:27:01;28.95;;;11.25;;
84666;SDS011;74896;42.518;23.712;2024-03-02T08:29:26;33.80;;;10.07;;
84666;SDS011;74896;42.518;23.712;2024-03-02T08:31:52;27.77;;;10.50;;
84666;SDS011;74896;42.518;23.712;2024-03-02T08:34:18;25.60;;;10.25;;
84666;SDS011;74896;42.518;23.712;2024-03-02T08:36:43;24.38;;;9.10;;
84666;SDS011;74896;42.518;23.712;2024-03-02T08:39:09;26.77;;;10.60;;
84666;SDS011;74896;42.518;23.712;2024-03-02T08:41:49;24.55;;;10.10;;
84666;SDS011;74896;42.518;23.712;2024-03-02T08:44:14;19.80;;;8.82;;
84666;SDS011;74896;42.518;23.712;2024-03-02T08:46:40;23.45;;;11.48;;
84666;SDS011;74896;42.518;23.712;2024-03-02T08:49:06;30.55;;;14.10;;
84666;SDS011;74896;42.518;23.712;2024-03-02T08:51:31;35.10;;;16.55;;
84666;SDS011;74896;42.518;23.712;2024-03-02T08:53:57;28.98;;;12.57;;
84666;SDS011;74896;42.518;23.712;2024-03-02T08:56:23;31.38;;;14.70;;
84666;SDS011;74896;42.518;23.712;2024-03-02T08:58:49;26.30;;;11.63;;
84666;SDS011;74896;42.518;23.712;2024-03-02T09:01:15;22.30;;;10.00;;
84666;SDS011;74896;42.518;23.712;2024-03-02T09:03:41;21.48;;;9.30;;
84666;SDS011;74896;42.518;23.712;2024-03-02T09:06:09;25.92;;;11.88;;
84666;SDS011;74896;42.518;23.712;2024-03-02T09:08:35;30.40;;;14.05;;
84666;SDS011;74896;42.518;23.712;2024-03-02T09:11:01;22.75;;;8.80;;
84666;SDS011;74896;42.518;23.712;2024-03-02T09:13:28;23.85;;;10.82;;
84666;SDS011;74896;42.518;23.712;2024-03-02T09:15:54;22.45;;;9.70;;
84666;SDS011;74896;42.518;23.712;2024-03-02T09:18:19;21.15;;;8.68;;
84666;SDS011;74896;42.518;23.712;2024-03-02T09:20:44;18.13;;;9.20;;
84666;SDS011;74896;42.518;23.712;2024-03-02T09:23:11;22.70;;;9.73;;
84666;SDS011;74896;42.518;23.712;2024-03-02T09:25:36;17.08;;;8.38;;
84666;SDS011;74896;42.518;23.712;2024-03-02T09:28:02;22.77;;;9.55;;
84666;SDS011;74896;42.518;23.712;2024-03-02T09:30:28;19.73;;;9.50;;
84666;SDS011;74896;42.518;23.712;2024-03-02T09:32:53;19.50;;;8.38;;
84666;SDS011;74896;42.518;23.712;2024-03-02T09:35:19;19.15;;;8.60;;
84666;SDS011;74896;42.518;23.712;2024-03-02T09:37:44;14.95;;;6.88;;
84666;SDS011;74896;42.518;23.712;2024-03-02T09:40:10;19.13;;;9.05;;
84666;SDS011;74896;42.518;23.712;2024-03-02T09:42:37;15.88;;;7.28;;
84666;SDS011;74896;42.518;23.712;2024-03-02T09:45:02;17.70;;;8.15;;
84666;SDS011;74896;42.518;23.712;2024-03-02T09:47:28;15.93;;;7.80;;
84666;SDS011;74896;42.518;23.712;2024-03-02T09:49:54;15.75;;;7.53;;
84666;SDS011;74896;42.518;23.712;2024-03-02T09:52:20;15.20;;;7.90;;
84666;SDS011;74896;42.518;23.712;2024-03-02T09:54:47;12.23;;;7.47;;
84666;SDS011;74896;42.518;23.712;2024-03-02T09:57:13;14.38;;;6.80;;
84666;SDS011;74896;42.518;23.712;2024-03-02T09:59:39;16.52;;;7.63;;
84666;SDS011;74896;42.518;23.712;2024-03-02T10:02:05;14.10;;;7.00;;
84666;SDS011;74896;42.518;23.712;2024-03-02T10:04:32;15.10;;;7.38;;
84666;SDS011;74896;42.518;23.712;2024-03-02T10:07:11;14.32;;;8.35;;
84666;SDS011;74896;42.518;23.712;2024-03-02T10:09:41;15.15;;;6.82;;
84666;SDS011;74896;42.518;23.712;2024-03-02T10:12:08;14.32;;;7.20;;
84666;SDS011;74896;42.518;23.712;2024-03-02T10:14:36;14.02;;;7.00;;
84666;SDS011;74896;42.518;23.712;2024-03-02T10:17:09;13.02;;;6.15;;
84666;SDS011;74896;42.518;23.712;2024-03-02T10:19:36;13.82;;;6.72;;
84666;SDS011;74896;42.518;23.712;2024-03-02T10:22:03;21.10;;;11.38;;
84666;SDS011;74896;42.518;23.712;2024-03-02T10:24:38;14.73;;;6.43;;
84666;SDS011;74896;42.518;23.712;2024-03-02T10:27:08;14.25;;;6.93;;
84666;SDS011;74896;42.518;23.712;2024-03-02T10:29:38;11.85;;;6.35;;
84666;SDS011;74896;42.518;23.712;2024-03-02T10:32:05;11.88;;;6.72;;
84666;SDS011;74896;42.518;23.712;2024-03-02T10:34:31;15.02;;;8.10;;
84666;SDS011;74896;42.518;23.712;2024-03-02T10:36:57;11.30;;;5.82;;
84666;SDS011;74896;42.518;23.712;2024-03-02T10:39:23;17.70;;;8.88;;
84666;SDS011;74896;42.518;23.712;2024-03-02T10:41:49;14.80;;;7.15;;
84666;SDS011;74896;42.518;23.712;2024-03-02T10:44:17;9.25;;;4.85;;
84666;SDS011;74896;42.518;23.712;2024-03-02T10:46:43;10.20;;;6.05;;
84666;SDS011;74896;42.518;23.712;2024-03-02T10:49:11;8.23;;;4.63;;
84666;SDS011;74896;42.518;23.712;2024-03-02T10:51:37;9.80;;;5.75;;
84666;SDS011;74896;42.518;23.712;2024-03-02T10:54:03;9.05;;;5.03;;
84666;SDS011;74896;42.518;23.712;2024-03-02T10:56:42;6.50;;;4.68;;
84666;SDS011;74896;42.518;23.712;2024-03-02T10:59:17;8.23;;;4.57;;
84666;SDS011;74896;42.518;23.712;2024-03-02T11:01:49;8.95;;;4.85;;
84666;SDS011;74896;42.518;23.712;2024-03-02T11:04:16;13.32;;;6.63;;
84666;SDS011;74896;42.518;23.712;2024-03-02T11:06:49;6.72;;;4.38;;
84666;SDS011;74896;42.518;23.712;2024-03-02T11:09:16;9.38;;;5.28;;
84666;SDS011;74896;42.518;23.712;2024-03-02T11:11:44;6.05;;;3.75;;
84666;SDS011;74896;42.518;23.712;2024-03-02T11:14:13;7.07;;;4.15;;
84666;SDS011;74896;42.518;23.712;2024-03-02T11:16:41;7.15;;;4.18;;
84666;SDS011;74896;42.518;23.712;2024-03-02T11:19:10;7.97;;;4.55;;
84666;SDS011;74896;42.518;23.712;2024-03-02T11:21:37;6.90;;;4.57;;
84666;SDS011;74896;42.518;23.712;2024-03-02T11:26:47;5.20;;;3.63;;
84666;SDS011;74896;42.518;23.712;2024-03-02T11:32:00;8.90;;;4.47;;
84666;SDS011;74896;42.518;23.712;2024-03-02T11:34:32;8.70;;;5.53;;
84666;SDS011;74896;42.518;23.712;2024-03-02T11:36:59;8.38;;;5.57;;
84666;SDS011;74896;42.518;23.712;2024-03-02T11:39:27;8.43;;;4.55;;
84666;SDS011;74896;42.518;23.712;2024-03-02T11:41:53;6.28;;;4.38;;
84666;SDS011;74896;42.518;23.712;2024-03-02T11:44:22;7.40;;;4.80;;
84666;SDS011;74896;42.518;23.712;2024-03-02T11:47:07;8.32;;;3.95;;
84666;SDS011;74896;42.518;23.712;2024-03-02T11:49:37;6.40;;;4.78;;
84666;SDS011;74896;42.518;23.712;2024-03-02T11:54:34;8.50;;;5.28;;
84666;SDS011;74896;42.518;23.712;2024-03-02T11:57:04;8.07;;;4.80;;
84666;SDS011;74896;42.518;23.712;2024-03-02T11:59:31;16.92;;;8.00;;
84666;SDS011;74896;42.518;23.712;2024-03-02T12:01:57;7.00;;;4.35;;
84666;SDS011;74896;42.518;23.712;2024-03-02T12:04:23;96.80;;;44.67;;
84666;SDS011;74896;42.518;23.712;2024-03-02T12:06:55;12.13;;;6.78;;
84666;SDS011;74896;42.518;23.712;2024-03-02T12:09:24;6.47;;;3.97;;
84666;SDS011;74896;42.518;23.712;2024-03-02T12:12:00;6.07;;;4.25;;
84666;SDS011;74896;42.518;23.712;2024-03-02T12:14:27;7.82;;;3.85;;
84666;SDS011;74896;42.518;23.712;2024-03-02T12:16:54;20.00;;;11.70;;
84666;SDS011;74896;42.518;23.712;2024-03-02T12:19:20;7.15;;;4.82;;
84666;SDS011;74896;42.518;23.712;2024-03-02T12:21:46;5.15;;;3.97;;
84666;SDS011;74896;42.518;23.712;2024-03-02T12:24:11;9.75;;;5.97;;
84666;SDS011;74896;42.518;23.712;2024-03-02T12:26:36;7.15;;;5.00;;
84666;SDS011;74896;42.518;23.712;2024-03-02T12:29:02;6.95;;;4.95;;
84666;SDS011;74896;42.518;23.712;2024-03-02T12:31:27;6.50;;;4.65;;
84666;SDS011;74896;42.518;23.712;2024-03-02T12:33:53;6.40;;;4.50;;
84666;SDS011;74896;42.518;23.712;2024-03-02T12:36:19;5.63;;;3.92;;
84666;SDS011;74896;42.518;23.712;2024-03-02T12:38:44;4.93;;;3.78;;
84666;SDS011;74896;42.518;23.712;2024-03-02T12:41:14;6.90;;;4.03;;
84666;SDS011;74896;42.518;23.712;2024-03-02T12:43:40;5.50;;;4.15;;
84666;SDS011;74896;42.518;23.712;2024-03-02T12:46:06;5.43;;;4.20;;
84666;SDS011;74896;42.518;23.712;2024-03-02T12:48:31;5.75;;;4.03;;
84666;SDS011;74896;42.518;23.712;2024-03-02T12:50:57;5.75;;;3.83;;
84666;SDS011;74896;42.518;23.712;2024-03-02T12:53:22;7.90;;;5.60;;
84666;SDS011;74896;42.518;23.712;2024-03-02T12:55:49;8.75;;;6.97;;
84666;SDS011;74896;42.518;23.712;2024-03-02T12:58:21;5.53;;;4.35;;
84666;SDS011;74896;42.518;23.712;2024-03-02T13:00:47;5.18;;;3.65;;
84666;SDS011;74896;42.518;23.712;2024-03-02T13:03:13;8.43;;;6.43;;
84666;SDS011;74896;42.518;23.712;2024-03-02T13:05:39;6.05;;;3.90;;
84666;SDS011;74896;42.518;23.712;2024-03-02T13:08:05;14.93;;;11.13;;
84666;SDS011;74896;42.518;23.712;2024-03-02T13:10:32;9.65;;;7.70;;
84666;SDS011;74896;42.518;23.712;2024-03-02T13:12:58;7.60;;;4.78;;
84666;SDS011;74896;42.518;23.712;2024-03-02T13:15:25;5.68;;;4.07;;
84666;SDS011;74896;42.518;23.712;2024-03-02T13:17:51;7.10;;;4.05;;
84666;SDS011;74896;42.518;23.712;2024-03-02T13:20:16;4.47;;;3.70;;
84666;SDS011;74896;42.518;23.712;2024-03-02T13:22:44;64.25;;;32.95;;
84666;SDS011;74896;42.518;23.712;2024-03-02T13:25:09;22.92;;;13.75;;
84666;SDS011;74896;42.518;23.712;2024-03-02T13:27:36;19.77;;;12.10;;
84666;SDS011;74896;42.518;23.712;2024-03-02T13:30:02;10.02;;;6.45;;
84666;SDS011;74896;42.518;23.712;2024-03-02T13:32:28;148.80;;;66.38;;
84666;SDS011;74896;42.518;23.712;2024-03-02T13:34:54;26.95;;;12.93;;
84666;SDS011;74896;42.518;23.712;2024-03-02T13:37:22;19.10;;;10.55;;
84666;SDS011;74896;42.518;23.712;2024-03-02T13:39:48;24.42;;;14.15;;
84666;SDS011;74896;42.518;23.712;2024-03-02T13:42:13;10.30;;;5.68;;
84666;SDS011;74896;42.518;23.712;2024-03-02T13:44:40;9.55;;;5.85;;
84666;SDS011;74896;42.518;23.712;2024-03-02T13:47:09;10.35;;;6.50;;
84666;SDS011;74896;42.518;23.712;2024-03-02T13:49:35;12.07;;;6.43;;
84666;SDS011;74896;42.518;23.712;2024-03-02T13:52:04;9.10;;;5.75;;
84666;SDS011;74896;42.518;23.712;2024-03-02T13:54:42;10.10;;;6.75;;
84666;SDS011;74896;42.518;23.712;2024-03-02T13:57:10;44.50;;;25.60;;
84666;SDS011;74896;42.518;23.712;2024-03-02T13:59:36;22.15;;;13.45;;
84666;SDS011;74896;42.518;23.712;2024-03-02T14:02:02;19.85;;;11.43;;
84666;SDS011;74896;42.518;23.712;2024-03-02T14:04:34;17.08;;;9.90;;
84666;SDS011;74896;42.518;23.712;2024-03-02T14:07:00;9.77;;;6.78;;
84666;SDS011;74896;42.518;23.712;2024-03-02T14:09:26;11.27;;;6.65;;
84666;SDS011;74896;42.518;23.712;2024-03-02T14:11:52;8.43;;;5.72;;
84666;SDS011;74896;42.518;23.712;2024-03-02T14:14:18;9.05;;;6.18;;
84666;SDS011;74896;42.518;23.712;2024-03-02T14:16:43;13.77;;;7.28;;
84666;SDS011;74896;42.518;23.712;2024-03-02T14:19:12;11.05;;;7.63;;